メインページ
METAR-TAF:

METAR-TAF

空港 :

フォール=ド=フランス, マルティニーク

マルティニーク・エメ・セゼール国際空港

緯度: 14-36N, 経度: 061-00W, 海抜: 5m

現時点の気象観測

当レポートは28分前の21:00(UTC)に作成
東/南東の風 13kt
気温 29°C
湿度 70%
気圧 1012 hPa
視程10km以上
高度2800ftの雲は散在している
高度3700ftの雲は散在している

METAR: TFFF 202100Z AUTO 11013KT 9999 SCT028 SCT037 29/23 Q1012 NOSIG

時間: 17:28 (21:28 UTC)

予報

当レポートは4時間28分前の17:00(UTC)に作成
予報は20日の 18時(UTC)から 21日の 18時(UTC)まで有効
の風 16kt
視程10km以上
高度3000ftの雲は散在している
高度5000ftの雲は散在している
21日の 00時(UTC)から 21日の 02時(UTC)まで徐々に
の風 5kt
21日の 12時(UTC)から 21日の 14時(UTC)まで徐々に
の風 16kt

TAF: TFFF 201700Z 2018/2118 10016KT 9999 SCT030 SCT050 BECMG 2100/2102 10005KT BECMG 2112/2114 10016KT

4,000以上の空港の気象観測と天気予報(METAR報とTAF報)

利用可能な観測所は地図上に黄色い丸と赤い丸で示す。

丸の上にカーソルを重ねると観測所名を参照できる。

次にクリックすると気象観測と天気予報を参照できる。

マップの切り替え:黒色「×」印の緑ボタンをクリックして拡大、「-」印の緑ボタンをクリックして縮小、緑色の三角印をクリックして隣りの地図に切り替え


METAR-TAF: